CCA4038 ZHCC-ZUUU
Flight info
| Callsign | CCA4038 |
|---|---|
| Flight time | 1h 56m |
| Altitude | 32100 |
| Route | NOPIN B208 TAMIX W4 AKNIP V155 BONPI W231 EKOKA |
| Aircraft | A320/M-SDE3FGHIRWY/LB1 |
Departure
| Time | 2026-04-22 12:47 |
|---|---|
| Airport | Zhengzhou Xinzheng International Airport (ZHCC) |
Arrival
| Time | 2026-04-22 14:43 |
|---|---|
| Airport | Chengdu Shuangliu International Airport (ZUUU) |
| Time | Latitude | Longitude | Altitude | Speed | Heading |
|---|---|---|---|---|---|
| 2026-04-22 11:54 | 34.52573 | 113.85074 | 505 ft | 0 kts | 292° |
| 2026-04-22 12:35 | 34.52573 | 113.85076 | 506 ft | 3 kts | 292° |
| 2026-04-22 12:35 | 34.52562 | 113.85105 | 506 ft | 4 kts | 294° |
| 2026-04-22 12:35 | 34.52552 | 113.85133 | 506 ft | 4 kts | 296° |
| 2026-04-22 12:35 | 34.52541 | 113.85161 | 506 ft | 4 kts | 297° |
| 2026-04-22 12:36 | 34.52528 | 113.85189 | 506 ft | 3 kts | 302° |
| 2026-04-22 12:36 | 34.52515 | 113.85213 | 506 ft | 3 kts | 310° |
| 2026-04-22 12:36 | 34.52501 | 113.85231 | 506 ft | 3 kts | 323° |
| 2026-04-22 12:36 | 34.52489 | 113.85240 | 506 ft | 2 kts | 342° |
| 2026-04-22 12:37 | 34.52475 | 113.85243 | 506 ft | 2 kts | 9° |
| 2026-04-22 12:37 | 34.52463 | 113.85241 | 506 ft | 2 kts | 22° |
| 2026-04-22 12:37 | 34.52454 | 113.85236 | 505 ft | 0 kts | 22° |
| 2026-04-22 12:37 | 34.52455 | 113.85237 | 505 ft | 0 kts | 22° |
| 2026-04-22 12:39 | 34.52511 | 113.85264 | 505 ft | 7 kts | 21° |
| 2026-04-22 12:39 | 34.52563 | 113.85289 | 505 ft | 9 kts | 21° |
| 2026-04-22 12:40 | 34.52631 | 113.85322 | 505 ft | 12 kts | 21° |
| 2026-04-22 12:40 | 34.52716 | 113.85363 | 505 ft | 14 kts | 21° |
| 2026-04-22 12:40 | 34.52807 | 113.85410 | 505 ft | 13 kts | 24° |
| 2026-04-22 12:40 | 34.52891 | 113.85454 | 505 ft | 12 kts | 24° |
| 2026-04-22 12:41 | 34.52974 | 113.85498 | 505 ft | 14 kts | 22° |
| 2026-04-22 12:41 | 34.53075 | 113.85546 | 505 ft | 17 kts | 21° |
| 2026-04-22 12:41 | 34.53170 | 113.85590 | 505 ft | 15 kts | 21° |
| 2026-04-22 12:41 | 34.53221 | 113.85668 | 504 ft | 13 kts | 96° |
| 2026-04-22 12:42 | 34.53183 | 113.85783 | 504 ft | 16 kts | 114° |
| 2026-04-22 12:42 | 34.53136 | 113.85918 | 504 ft | 18 kts | 112° |
| 2026-04-22 12:42 | 34.53093 | 113.86048 | 504 ft | 17 kts | 112° |
| 2026-04-22 12:42 | 34.53045 | 113.86195 | 503 ft | 20 kts | 113° |
| 2026-04-22 12:43 | 34.52988 | 113.86357 | 503 ft | 22 kts | 112° |
| 2026-04-22 12:43 | 34.52926 | 113.86539 | 502 ft | 24 kts | 112° |
| 2026-04-22 12:43 | 34.52860 | 113.86734 | 502 ft | 26 kts | 112° |
| 2026-04-22 12:43 | 34.52790 | 113.86942 | 502 ft | 27 kts | 112° |
| 2026-04-22 12:44 | 34.52723 | 113.87136 | 503 ft | 21 kts | 113° |
| 2026-04-22 12:44 | 34.52673 | 113.87280 | 503 ft | 15 kts | 112° |
| 2026-04-22 12:44 | 34.52629 | 113.87408 | 503 ft | 18 kts | 112° |
| 2026-04-22 12:44 | 34.52605 | 113.87479 | 503 ft | 8 kts | 112° |
| 2026-04-22 12:45 | 34.52581 | 113.87556 | 503 ft | 11 kts | 104° |
| 2026-04-22 12:45 | 34.52602 | 113.87615 | 501 ft | 6 kts | 37° |
| 2026-04-22 12:45 | 34.52615 | 113.87621 | 501 ft | 0 kts | 17° |
| 2026-04-22 12:45 | 34.52633 | 113.87627 | 500 ft | 6 kts | 17° |
| 2026-04-22 12:46 | 34.52696 | 113.87651 | 487 ft | 13 kts | 15° |
| 2026-04-22 12:46 | 34.52754 | 113.87589 | 488 ft | 13 kts | 290° |
| 2026-04-22 12:46 | 34.52790 | 113.87479 | 494 ft | 17 kts | 292° |
| 2026-04-22 12:46 | 34.52914 | 113.87108 | 484 ft | 83 kts | 292° |
| 2026-04-22 12:47 | 34.53205 | 113.86236 | 489 ft | 136 kts | 292° |
| 2026-04-22 12:47 | 34.53612 | 113.85059 | 724 ft | 154 kts | 292° |
| 2026-04-22 12:47 | 34.54023 | 113.83868 | 1261 ft | 155 kts | 295° |
| 2026-04-22 12:47 | 34.54445 | 113.82639 | 1810 ft | 158 kts | 294° |
| 2026-04-22 12:48 | 34.54860 | 113.81390 | 2339 ft | 160 kts | 294° |
| 2026-04-22 12:48 | 34.55274 | 113.80134 | 2875 ft | 160 kts | 295° |
| 2026-04-22 12:48 | 34.55697 | 113.78860 | 3333 ft | 169 kts | 295° |
| 2026-04-22 12:48 | 34.56171 | 113.77448 | 3574 ft | 192 kts | 294° |
| 2026-04-22 12:49 | 34.56709 | 113.75846 | 3901 ft | 215 kts | 294° |
| 2026-04-22 12:49 | 34.57280 | 113.74135 | 4617 ft | 221 kts | 294° |
| 2026-04-22 12:49 | 34.57855 | 113.72402 | 5420 ft | 223 kts | 295° |
| 2026-04-22 12:49 | 34.58449 | 113.70617 | 5777 ft | 229 kts | 296° |
| 2026-04-22 12:50 | 34.59045 | 113.68821 | 5894 ft | 229 kts | 296° |
| 2026-04-22 12:50 | 34.59739 | 113.67055 | 5999 ft | 244 kts | 309° |
| 2026-04-22 12:50 | 34.61060 | 113.65657 | 6105 ft | 260 kts | 339° |
| 2026-04-22 12:50 | 34.62842 | 113.65121 | 6653 ft | 267 kts | 353° |
| 2026-04-22 12:51 | 34.64678 | 113.64730 | 7573 ft | 269 kts | 353° |
| 2026-04-22 12:51 | 34.66536 | 113.64325 | 8459 ft | 273 kts | 353° |
| 2026-04-22 12:51 | 34.68428 | 113.63911 | 9317 ft | 278 kts | 353° |
| 2026-04-22 12:51 | 34.70325 | 113.63495 | 10112 ft | 284 kts | 353° |
| 2026-04-22 12:52 | 34.72347 | 113.63055 | 10433 ft | 307 kts | 353° |
| 2026-04-22 12:52 | 34.74528 | 113.62583 | 10658 ft | 330 kts | 353° |
| 2026-04-22 12:52 | 34.76837 | 113.62080 | 11102 ft | 342 kts | 352° |
| 2026-04-22 12:52 | 34.79198 | 113.61560 | 11779 ft | 347 kts | 352° |
| 2026-04-22 12:53 | 34.81587 | 113.61033 | 12481 ft | 351 kts | 352° |
| 2026-04-22 12:53 | 34.84001 | 113.60499 | 13195 ft | 354 kts | 352° |
| 2026-04-22 12:53 | 34.86438 | 113.59960 | 13888 ft | 358 kts | 351° |
| 2026-04-22 12:53 | 34.88899 | 113.59415 | 14485 ft | 362 kts | 350° |
| 2026-04-22 12:54 | 34.91390 | 113.58864 | 15065 ft | 366 kts | 350° |
| 2026-04-22 12:54 | 34.93910 | 113.58312 | 15635 ft | 370 kts | 349° |
| 2026-04-22 12:54 | 34.96457 | 113.57755 | 16194 ft | 374 kts | 349° |
| 2026-04-22 12:54 | 34.99035 | 113.57191 | 16753 ft | 378 kts | 349° |
| 2026-04-22 12:55 | 35.01641 | 113.56621 | 17315 ft | 383 kts | 348° |
| 2026-04-22 12:55 | 35.04279 | 113.56040 | 17881 ft | 387 kts | 348° |
| 2026-04-22 12:55 | 35.06949 | 113.55452 | 18426 ft | 392 kts | 348° |
| 2026-04-22 12:55 | 35.09646 | 113.54860 | 18937 ft | 396 kts | 347° |
| 2026-04-22 12:56 | 35.12332 | 113.54270 | 19485 ft | 398 kts | 347° |
| 2026-04-22 12:56 | 35.15069 | 113.53667 | 20033 ft | 401 kts | 347° |
| 2026-04-22 12:56 | 35.17832 | 113.53059 | 20569 ft | 404 kts | 346° |
| 2026-04-22 12:56 | 35.20611 | 113.52447 | 21074 ft | 407 kts | 346° |
| 2026-04-22 12:57 | 35.23414 | 113.51830 | 21572 ft | 410 kts | 345° |
| 2026-04-22 12:57 | 35.26231 | 113.51208 | 22048 ft | 413 kts | 345° |
| 2026-04-22 12:57 | 35.29073 | 113.50576 | 22523 ft | 416 kts | 345° |
| 2026-04-22 12:57 | 35.31934 | 113.49937 | 22993 ft | 419 kts | 344° |
| 2026-04-22 12:58 | 35.34816 | 113.49294 | 23484 ft | 422 kts | 344° |
| 2026-04-22 12:58 | 35.37718 | 113.48648 | 23874 ft | 425 kts | 343° |
| 2026-04-22 12:58 | 35.40645 | 113.48002 | 24261 ft | 428 kts | 343° |
| 2026-04-22 12:58 | 35.43581 | 113.47348 | 24663 ft | 429 kts | 341° |
| 2026-04-22 12:59 | 35.46422 | 113.46337 | 25038 ft | 424 kts | 333° |
| 2026-04-22 12:59 | 35.49196 | 113.45095 | 25433 ft | 424 kts | 331° |
| 2026-04-22 12:59 | 35.51746 | 113.43402 | 25584 ft | 411 kts | 316° |
| 2026-04-22 12:59 | 35.53761 | 113.41005 | 25620 ft | 400 kts | 302° |
| 2026-04-22 13:00 | 35.55160 | 113.38095 | 25619 ft | 394 kts | 289° |
| 2026-04-22 13:00 | 35.55898 | 113.34894 | 25620 ft | 388 kts | 275° |
| 2026-04-22 13:00 | 35.55965 | 113.31646 | 25621 ft | 385 kts | 263° |
| 2026-04-22 13:00 | 35.55364 | 113.28407 | 25621 ft | 386 kts | 250° |
| 2026-04-22 13:01 | 35.54171 | 113.25495 | 25622 ft | 388 kts | 241° |
| 2026-04-22 13:01 | 35.52772 | 113.22647 | 25619 ft | 389 kts | 241° |
| 2026-04-22 13:01 | 35.51367 | 113.19810 | 25622 ft | 389 kts | 241° |
| 2026-04-22 13:01 | 35.49955 | 113.16974 | 25617 ft | 389 kts | 241° |
| 2026-04-22 13:02 | 35.48545 | 113.14141 | 25618 ft | 389 kts | 241° |
| 2026-04-22 13:02 | 35.47136 | 113.11303 | 25618 ft | 389 kts | 241° |
| 2026-04-22 13:02 | 35.45736 | 113.08476 | 25610 ft | 388 kts | 240° |
| 2026-04-22 13:02 | 35.44336 | 113.05652 | 25614 ft | 388 kts | 241° |
| 2026-04-22 13:03 | 35.42931 | 113.02821 | 25614 ft | 389 kts | 241° |
| 2026-04-22 13:03 | 35.41527 | 112.99994 | 25607 ft | 388 kts | 240° |
| 2026-04-22 13:03 | 35.40118 | 112.97155 | 25834 ft | 391 kts | 241° |
| 2026-04-22 13:03 | 35.38704 | 112.94307 | 26323 ft | 391 kts | 241° |
| 2026-04-22 13:04 | 35.37286 | 112.91462 | 26856 ft | 391 kts | 240° |
| 2026-04-22 13:04 | 35.35873 | 112.88628 | 27348 ft | 390 kts | 241° |
| 2026-04-22 13:04 | 35.34459 | 112.85790 | 27809 ft | 390 kts | 241° |
| 2026-04-22 13:04 | 35.33047 | 112.82958 | 28298 ft | 390 kts | 241° |
| 2026-04-22 13:05 | 35.31632 | 112.80128 | 28770 ft | 390 kts | 241° |
| 2026-04-22 13:05 | 35.30211 | 112.77297 | 29228 ft | 389 kts | 242° |
| 2026-04-22 13:05 | 35.28800 | 112.74489 | 29908 ft | 384 kts | 242° |
| 2026-04-22 13:05 | 35.27410 | 112.71724 | 30574 ft | 378 kts | 242° |
| 2026-04-22 13:06 | 35.26037 | 112.68992 | 31031 ft | 377 kts | 242° |
| 2026-04-22 13:06 | 35.24662 | 112.66247 | 31400 ft | 378 kts | 242° |
| 2026-04-22 13:06 | 35.23305 | 112.63540 | 31830 ft | 378 kts | 242° |
| 2026-04-22 13:06 | 35.21931 | 112.60799 | 32058 ft | 379 kts | 242° |
| 2026-04-22 13:07 | 35.20552 | 112.58052 | 32094 ft | 379 kts | 242° |
| 2026-04-22 13:07 | 35.17810 | 112.52553 | 32095 ft | 379 kts | 242° |
| 2026-04-22 13:08 | 35.15089 | 112.47046 | 32092 ft | 378 kts | 242° |
| 2026-04-22 13:08 | 35.12383 | 112.41585 | 32099 ft | 372 kts | 242° |
| 2026-04-22 13:09 | 35.09695 | 112.36174 | 32060 ft | 373 kts | 242° |
| 2026-04-22 13:09 | 35.06989 | 112.30741 | 32058 ft | 376 kts | 242° |
| 2026-04-22 13:10 | 35.04276 | 112.25300 | 32059 ft | 379 kts | 242° |
| 2026-04-22 13:10 | 35.01527 | 112.19802 | 32064 ft | 380 kts | 242° |
| 2026-04-22 13:11 | 34.98763 | 112.14283 | 32066 ft | 381 kts | 242° |
| 2026-04-22 13:11 | 34.96002 | 112.08774 | 32118 ft | 380 kts | 242° |
| 2026-04-22 13:12 | 34.93246 | 112.03286 | 32115 ft | 378 kts | 242° |
| 2026-04-22 13:12 | 34.90496 | 111.97817 | 32072 ft | 380 kts | 242° |
| 2026-04-22 13:13 | 34.87722 | 111.92316 | 32078 ft | 382 kts | 242° |
| 2026-04-22 13:13 | 34.84970 | 111.86823 | 32079 ft | 383 kts | 242° |
| 2026-04-22 13:14 | 34.82218 | 111.81270 | 32081 ft | 384 kts | 242° |
| 2026-04-22 13:14 | 34.79464 | 111.75720 | 32125 ft | 383 kts | 242° |
| 2026-04-22 13:15 | 34.77175 | 111.71122 | 32126 ft | 381 kts | 242° |
| 2026-04-22 13:15 | 34.74421 | 111.65623 | 32094 ft | 381 kts | 242° |
| 2026-04-22 13:16 | 34.71193 | 111.59171 | 32077 ft | 383 kts | 242° |
| 2026-04-22 13:16 | 34.68891 | 111.54560 | 32079 ft | 384 kts | 242° |
| 2026-04-22 13:17 | 34.66105 | 111.49012 | 32085 ft | 385 kts | 242° |
| 2026-04-22 13:17 | 34.63307 | 111.43456 | 32098 ft | 386 kts | 242° |
| 2026-04-22 13:18 | 34.60503 | 111.37890 | 32093 ft | 386 kts | 242° |
| 2026-04-22 13:18 | 34.57697 | 111.32338 | 32105 ft | 386 kts | 242° |
| 2026-04-22 13:19 | 34.54887 | 111.26789 | 32110 ft | 386 kts | 242° |
| 2026-04-22 13:19 | 34.52086 | 111.21245 | 32113 ft | 386 kts | 242° |
| 2026-04-22 13:20 | 34.49303 | 111.15732 | 32113 ft | 386 kts | 242° |
| 2026-04-22 13:20 | 34.46493 | 111.10195 | 32143 ft | 385 kts | 241° |
| 2026-04-22 13:21 | 34.43683 | 111.04690 | 32150 ft | 383 kts | 241° |
| 2026-04-22 13:21 | 34.40911 | 110.99203 | 32145 ft | 381 kts | 242° |
| 2026-04-22 13:22 | 34.38166 | 110.93691 | 32100 ft | 383 kts | 242° |
| 2026-04-22 13:22 | 34.35396 | 110.88142 | 32096 ft | 386 kts | 242° |
| 2026-04-22 13:23 | 34.32603 | 110.82565 | 32102 ft | 388 kts | 242° |
| 2026-04-22 13:23 | 34.29807 | 110.76992 | 32136 ft | 387 kts | 242° |
| 2026-04-22 13:24 | 34.27033 | 110.71479 | 32148 ft | 385 kts | 242° |
| 2026-04-22 13:24 | 34.24253 | 110.65953 | 32144 ft | 384 kts | 242° |
| 2026-04-22 13:25 | 34.21482 | 110.60447 | 32114 ft | 384 kts | 242° |
| 2026-04-22 13:25 | 34.18715 | 110.54975 | 32105 ft | 386 kts | 242° |
| 2026-04-22 13:26 | 34.15897 | 110.49413 | 32100 ft | 388 kts | 242° |
| 2026-04-22 13:26 | 34.13080 | 110.43841 | 32123 ft | 389 kts | 242° |
| 2026-04-22 13:27 | 34.10279 | 110.38271 | 32127 ft | 388 kts | 242° |
| 2026-04-22 13:27 | 34.07497 | 110.32707 | 32129 ft | 387 kts | 242° |
| 2026-04-22 13:28 | 34.04707 | 110.27148 | 32128 ft | 387 kts | 242° |
| 2026-04-22 13:28 | 34.01908 | 110.21603 | 32091 ft | 388 kts | 242° |
| 2026-04-22 13:29 | 33.99114 | 110.16077 | 32097 ft | 389 kts | 241° |
| 2026-04-22 13:29 | 33.96291 | 110.10501 | 32116 ft | 390 kts | 242° |
| 2026-04-22 13:30 | 33.93464 | 110.04926 | 32134 ft | 389 kts | 242° |
| 2026-04-22 13:30 | 33.90631 | 109.99366 | 32128 ft | 389 kts | 241° |
| 2026-04-22 13:31 | 33.87900 | 109.93759 | 32112 ft | 386 kts | 248° |
| 2026-04-22 13:31 | 33.86260 | 109.87628 | 32127 ft | 385 kts | 255° |
| 2026-04-22 13:32 | 33.84760 | 109.81418 | 32100 ft | 387 kts | 254° |
| 2026-04-22 13:32 | 33.83232 | 109.75201 | 32128 ft | 388 kts | 254° |
| 2026-04-22 13:33 | 33.81700 | 109.68973 | 32128 ft | 389 kts | 254° |
| 2026-04-22 13:33 | 33.80174 | 109.62733 | 32136 ft | 389 kts | 254° |
| 2026-04-22 13:34 | 33.78652 | 109.56494 | 32150 ft | 388 kts | 254° |
| 2026-04-22 13:34 | 33.77127 | 109.50261 | 32153 ft | 388 kts | 254° |
| 2026-04-22 13:35 | 33.75604 | 109.44075 | 32171 ft | 387 kts | 254° |
| 2026-04-22 13:35 | 33.74074 | 109.37893 | 32184 ft | 385 kts | 254° |
| 2026-04-22 13:36 | 33.72552 | 109.31748 | 32180 ft | 383 kts | 254° |
| 2026-04-22 13:36 | 33.71032 | 109.25631 | 32179 ft | 381 kts | 254° |
| 2026-04-22 13:37 | 33.69509 | 109.19498 | 32123 ft | 384 kts | 254° |
| 2026-04-22 13:37 | 33.67972 | 109.13319 | 32122 ft | 387 kts | 253° |
| 2026-04-22 13:38 | 33.66444 | 109.07162 | 32158 ft | 386 kts | 254° |
| 2026-04-22 13:38 | 33.64127 | 108.97933 | 32161 ft | 384 kts | 254° |
| 2026-04-22 13:39 | 33.62586 | 108.91808 | 32164 ft | 383 kts | 254° |
| 2026-04-22 13:39 | 33.61046 | 108.85687 | 32162 ft | 383 kts | 253° |
| 2026-04-22 13:40 | 33.59500 | 108.79567 | 32156 ft | 382 kts | 254° |
| 2026-04-22 13:40 | 33.57960 | 108.73489 | 32163 ft | 378 kts | 253° |
| 2026-04-22 13:41 | 33.56437 | 108.67470 | 32178 ft | 376 kts | 253° |
| 2026-04-22 13:41 | 33.54922 | 108.61513 | 32131 ft | 376 kts | 254° |
| 2026-04-22 13:42 | 33.53390 | 108.55500 | 32115 ft | 379 kts | 254° |
| 2026-04-22 13:42 | 33.51849 | 108.49430 | 32111 ft | 382 kts | 254° |
| 2026-04-22 13:43 | 33.50288 | 108.43340 | 32123 ft | 383 kts | 254° |
| 2026-04-22 13:43 | 33.48725 | 108.37261 | 32163 ft | 380 kts | 253° |
| 2026-04-22 13:44 | 33.47169 | 108.31215 | 32172 ft | 378 kts | 253° |
| 2026-04-22 13:44 | 33.45624 | 108.25209 | 32159 ft | 376 kts | 253° |
| 2026-04-22 13:45 | 33.44094 | 108.19234 | 32147 ft | 375 kts | 253° |
| 2026-04-22 13:45 | 33.42544 | 108.13271 | 32143 ft | 375 kts | 253° |
| 2026-04-22 13:46 | 33.40032 | 108.07794 | 32139 ft | 382 kts | 234° |
| 2026-04-22 13:46 | 33.36056 | 108.03528 | 32090 ft | 390 kts | 225° |
| 2026-04-22 13:47 | 33.31873 | 107.99388 | 32116 ft | 391 kts | 225° |
| 2026-04-22 13:47 | 33.27630 | 107.95192 | 32121 ft | 398 kts | 225° |
| 2026-04-22 13:48 | 33.23362 | 107.90983 | 32121 ft | 398 kts | 225° |
| 2026-04-22 13:48 | 33.19086 | 107.86778 | 32118 ft | 399 kts | 225° |
| 2026-04-22 13:49 | 33.14780 | 107.82532 | 32104 ft | 406 kts | 224° |
| 2026-04-22 13:49 | 33.10400 | 107.78224 | 32097 ft | 409 kts | 224° |
| 2026-04-22 13:50 | 33.06023 | 107.73939 | 32110 ft | 409 kts | 225° |
| 2026-04-22 13:50 | 33.01636 | 107.69646 | 32133 ft | 407 kts | 225° |
| 2026-04-22 13:51 | 32.97279 | 107.65390 | 32145 ft | 403 kts | 225° |
| 2026-04-22 13:51 | 32.92945 | 107.61155 | 32115 ft | 403 kts | 224° |
| 2026-04-22 13:52 | 32.88601 | 107.56909 | 32086 ft | 406 kts | 224° |
| 2026-04-22 13:52 | 32.84224 | 107.52640 | 32085 ft | 408 kts | 224° |
| 2026-04-22 13:53 | 32.80121 | 107.48044 | 32089 ft | 402 kts | 236° |
| 2026-04-22 13:53 | 32.76845 | 107.42670 | 32088 ft | 402 kts | 238° |
| 2026-04-22 13:54 | 32.73572 | 107.37295 | 32120 ft | 400 kts | 238° |
| 2026-04-22 13:54 | 32.70316 | 107.31956 | 32134 ft | 397 kts | 238° |
| 2026-04-22 13:55 | 32.67103 | 107.26706 | 32104 ft | 392 kts | 238° |
| 2026-04-22 13:55 | 32.63909 | 107.21495 | 32115 ft | 393 kts | 238° |
| 2026-04-22 13:56 | 32.60683 | 107.16245 | 32103 ft | 394 kts | 237° |
| 2026-04-22 13:56 | 32.57456 | 107.11004 | 32107 ft | 393 kts | 238° |
| 2026-04-22 13:57 | 32.54235 | 107.05774 | 32109 ft | 392 kts | 238° |
| 2026-04-22 13:57 | 32.51026 | 107.00562 | 32081 ft | 391 kts | 237° |
| 2026-04-22 13:58 | 32.47832 | 106.95381 | 32080 ft | 392 kts | 237° |
| 2026-04-22 13:58 | 32.44603 | 106.90159 | 32074 ft | 393 kts | 238° |
| 2026-04-22 13:59 | 32.41368 | 106.84931 | 32069 ft | 394 kts | 237° |
| 2026-04-22 13:59 | 32.38125 | 106.79699 | 32075 ft | 394 kts | 237° |
| 2026-04-22 14:00 | 32.34878 | 106.74466 | 32072 ft | 395 kts | 238° |
| 2026-04-22 14:00 | 32.32310 | 106.68801 | 32084 ft | 390 kts | 253° |
| 2026-04-22 14:01 | 32.30946 | 106.62619 | 32078 ft | 387 kts | 256° |
| 2026-04-22 14:01 | 32.29837 | 106.57491 | 32048 ft | 388 kts | 256° |
| 2026-04-22 14:02 | 32.28270 | 106.50296 | 32062 ft | 390 kts | 256° |
| 2026-04-22 14:02 | 32.27150 | 106.45125 | 32070 ft | 390 kts | 256° |
| 2026-04-22 14:03 | 32.25803 | 106.38911 | 32075 ft | 390 kts | 256° |
| 2026-04-22 14:03 | 32.24449 | 106.32698 | 32087 ft | 389 kts | 256° |
| 2026-04-22 14:04 | 32.23104 | 106.26519 | 32104 ft | 387 kts | 256° |
| 2026-04-22 14:04 | 32.21762 | 106.20377 | 32104 ft | 386 kts | 256° |
| 2026-04-22 14:05 | 32.19713 | 106.14550 | 32098 ft | 388 kts | 240° |
| 2026-04-22 14:06 | 32.15356 | 106.06485 | 32087 ft | 388 kts | 241° |
| 2026-04-22 14:06 | 32.12472 | 106.01112 | 32054 ft | 388 kts | 241° |
| 2026-04-22 14:07 | 32.09587 | 105.95734 | 32061 ft | 388 kts | 241° |
| 2026-04-22 14:07 | 32.06724 | 105.90401 | 32061 ft | 387 kts | 241° |
| 2026-04-22 14:08 | 32.03835 | 105.85050 | 32065 ft | 387 kts | 240° |
| 2026-04-22 14:08 | 32.00938 | 105.79695 | 32067 ft | 387 kts | 241° |
| 2026-04-22 14:09 | 31.98038 | 105.74346 | 32068 ft | 387 kts | 240° |
| 2026-04-22 14:09 | 31.95146 | 105.69020 | 32051 ft | 386 kts | 241° |
| 2026-04-22 14:10 | 31.92254 | 105.63698 | 32047 ft | 386 kts | 240° |
| 2026-04-22 14:10 | 31.89364 | 105.58376 | 32047 ft | 387 kts | 240° |
| 2026-04-22 14:11 | 31.86466 | 105.53035 | 32050 ft | 387 kts | 241° |
| 2026-04-22 14:11 | 31.83558 | 105.47701 | 32061 ft | 388 kts | 240° |
| 2026-04-22 14:12 | 31.80637 | 105.42362 | 32057 ft | 388 kts | 240° |
| 2026-04-22 14:12 | 31.77735 | 105.37057 | 32059 ft | 388 kts | 240° |
| 2026-04-22 14:13 | 31.74814 | 105.31719 | 32067 ft | 388 kts | 240° |
| 2026-04-22 14:13 | 31.71888 | 105.26380 | 32085 ft | 388 kts | 240° |
| 2026-04-22 14:14 | 31.68970 | 105.21057 | 32074 ft | 387 kts | 240° |
| 2026-04-22 14:14 | 31.66091 | 105.15693 | 32064 ft | 388 kts | 241° |
| 2026-04-22 14:15 | 31.63276 | 105.10274 | 32064 ft | 389 kts | 241° |
| 2026-04-22 14:15 | 31.60451 | 105.04848 | 31816 ft | 391 kts | 241° |
| 2026-04-22 14:15 | 31.59024 | 105.02129 | 31575 ft | 392 kts | 241° |
| 2026-04-22 14:16 | 31.57593 | 104.99411 | 31329 ft | 393 kts | 241° |
| 2026-04-22 14:16 | 31.56174 | 104.96716 | 31091 ft | 394 kts | 241° |
| 2026-04-22 14:16 | 31.54733 | 104.93982 | 30850 ft | 395 kts | 241° |
| 2026-04-22 14:16 | 31.53281 | 104.91236 | 30615 ft | 396 kts | 241° |
| 2026-04-22 14:17 | 31.51829 | 104.88488 | 30372 ft | 397 kts | 241° |
| 2026-04-22 14:17 | 31.50373 | 104.85736 | 30138 ft | 398 kts | 241° |
| 2026-04-22 14:17 | 31.48912 | 104.82977 | 29879 ft | 399 kts | 241° |
| 2026-04-22 14:17 | 31.47444 | 104.80204 | 29572 ft | 402 kts | 240° |
| 2026-04-22 14:18 | 31.45960 | 104.77397 | 29299 ft | 409 kts | 240° |
| 2026-04-22 14:18 | 31.44456 | 104.74556 | 29028 ft | 412 kts | 240° |
| 2026-04-22 14:18 | 31.42942 | 104.71699 | 28749 ft | 414 kts | 240° |
| 2026-04-22 14:18 | 31.41420 | 104.68830 | 28493 ft | 415 kts | 240° |
| 2026-04-22 14:19 | 31.39894 | 104.65955 | 28224 ft | 415 kts | 241° |
| 2026-04-22 14:19 | 31.38371 | 104.63087 | 27976 ft | 414 kts | 241° |
| 2026-04-22 14:19 | 31.36846 | 104.60218 | 27714 ft | 413 kts | 241° |
| 2026-04-22 14:19 | 31.35326 | 104.57365 | 27465 ft | 412 kts | 241° |
| 2026-04-22 14:20 | 31.32301 | 104.51688 | 26957 ft | 410 kts | 241° |
| 2026-04-22 14:20 | 31.30809 | 104.48892 | 26713 ft | 409 kts | 241° |
| 2026-04-22 14:20 | 31.29306 | 104.46075 | 26463 ft | 408 kts | 241° |
| 2026-04-22 14:21 | 31.26303 | 104.40454 | 25978 ft | 407 kts | 241° |
| 2026-04-22 14:21 | 31.24806 | 104.37648 | 25722 ft | 407 kts | 241° |
| 2026-04-22 14:22 | 31.21814 | 104.32009 | 25254 ft | 407 kts | 242° |
| 2026-04-22 14:22 | 31.20328 | 104.29196 | 25027 ft | 406 kts | 242° |
| 2026-04-22 14:22 | 31.17373 | 104.23594 | 24344 ft | 402 kts | 242° |
| 2026-04-22 14:23 | 31.15911 | 104.20823 | 23629 ft | 401 kts | 243° |
| 2026-04-22 14:23 | 31.14450 | 104.18061 | 22829 ft | 398 kts | 243° |
| 2026-04-22 14:23 | 31.12998 | 104.15324 | 22130 ft | 394 kts | 242° |
| 2026-04-22 14:23 | 31.11556 | 104.12614 | 21448 ft | 392 kts | 242° |
| 2026-04-22 14:24 | 31.10117 | 104.09917 | 20784 ft | 390 kts | 241° |
| 2026-04-22 14:24 | 31.08451 | 104.07407 | 20152 ft | 394 kts | 230° |
| 2026-04-22 14:24 | 31.06345 | 104.05331 | 19525 ft | 399 kts | 217° |
| 2026-04-22 14:24 | 31.03877 | 104.03819 | 18898 ft | 403 kts | 205° |
| 2026-04-22 14:25 | 31.01307 | 104.02626 | 18259 ft | 403 kts | 205° |
| 2026-04-22 14:25 | 30.98672 | 104.01398 | 17559 ft | 401 kts | 205° |
| 2026-04-22 14:25 | 30.96125 | 104.00205 | 16914 ft | 398 kts | 205° |
| 2026-04-22 14:25 | 30.93561 | 103.99001 | 16243 ft | 396 kts | 204° |
| 2026-04-22 14:26 | 30.91009 | 103.97799 | 15573 ft | 395 kts | 204° |
| 2026-04-22 14:26 | 30.88466 | 103.96601 | 14882 ft | 393 kts | 204° |
| 2026-04-22 14:26 | 30.85929 | 103.95406 | 14183 ft | 393 kts | 203° |
| 2026-04-22 14:26 | 30.83400 | 103.94217 | 13434 ft | 392 kts | 203° |
| 2026-04-22 14:27 | 30.80881 | 103.93034 | 12706 ft | 389 kts | 202° |
| 2026-04-22 14:27 | 30.78378 | 103.91859 | 12000 ft | 386 kts | 202° |
| 2026-04-22 14:27 | 30.75890 | 103.90695 | 11292 ft | 384 kts | 202° |
| 2026-04-22 14:27 | 30.73419 | 103.89540 | 10698 ft | 380 kts | 202° |
| 2026-04-22 14:28 | 30.71022 | 103.88419 | 10561 ft | 362 kts | 202° |
| 2026-04-22 14:28 | 30.68739 | 103.87353 | 10441 ft | 347 kts | 201° |
| 2026-04-22 14:28 | 30.66541 | 103.86324 | 10322 ft | 333 kts | 201° |
| 2026-04-22 14:28 | 30.64429 | 103.85335 | 10196 ft | 322 kts | 201° |
| 2026-04-22 14:29 | 30.62386 | 103.84382 | 10073 ft | 311 kts | 201° |
| 2026-04-22 14:29 | 30.60398 | 103.83454 | 9848 ft | 305 kts | 201° |
| 2026-04-22 14:29 | 30.58418 | 103.82532 | 9424 ft | 306 kts | 201° |
| 2026-04-22 14:29 | 30.56456 | 103.81619 | 9121 ft | 303 kts | 201° |
| 2026-04-22 14:30 | 30.54506 | 103.80709 | 8756 ft | 302 kts | 201° |
| 2026-04-22 14:30 | 30.52586 | 103.79815 | 8421 ft | 300 kts | 201° |
| 2026-04-22 14:30 | 30.50655 | 103.78915 | 8097 ft | 298 kts | 201° |
| 2026-04-22 14:30 | 30.48740 | 103.78023 | 7760 ft | 296 kts | 201° |
| 2026-04-22 14:31 | 30.46839 | 103.77134 | 7439 ft | 293 kts | 201° |
| 2026-04-22 14:31 | 30.44949 | 103.76258 | 7097 ft | 292 kts | 201° |
| 2026-04-22 14:31 | 30.43067 | 103.75394 | 6840 ft | 288 kts | 201° |
| 2026-04-22 14:31 | 30.41234 | 103.74560 | 6716 ft | 278 kts | 201° |
| 2026-04-22 14:32 | 30.39458 | 103.73752 | 6593 ft | 270 kts | 201° |
| 2026-04-22 14:32 | 30.37739 | 103.72967 | 6458 ft | 262 kts | 201° |
| 2026-04-22 14:32 | 30.36055 | 103.72192 | 6220 ft | 259 kts | 201° |
| 2026-04-22 14:32 | 30.34394 | 103.71423 | 5950 ft | 256 kts | 201° |
| 2026-04-22 14:33 | 30.32747 | 103.70659 | 5685 ft | 253 kts | 201° |
| 2026-04-22 14:33 | 30.31120 | 103.69903 | 5433 ft | 251 kts | 202° |
| 2026-04-22 14:33 | 30.29510 | 103.69157 | 5178 ft | 248 kts | 201° |
| 2026-04-22 14:33 | 30.27915 | 103.68418 | 4925 ft | 245 kts | 202° |
| 2026-04-22 14:34 | 30.26344 | 103.67692 | 4680 ft | 242 kts | 202° |
| 2026-04-22 14:34 | 30.24799 | 103.66983 | 4609 ft | 236 kts | 200° |
| 2026-04-22 14:34 | 30.23178 | 103.66733 | 4789 ft | 239 kts | 171° |
| 2026-04-22 14:34 | 30.21663 | 103.67468 | 4879 ft | 239 kts | 140° |
| 2026-04-22 14:35 | 30.20688 | 103.68997 | 4893 ft | 239 kts | 112° |
| 2026-04-22 14:35 | 30.20062 | 103.70778 | 4896 ft | 239 kts | 111° |
| 2026-04-22 14:35 | 30.19437 | 103.72562 | 4894 ft | 239 kts | 112° |
| 2026-04-22 14:35 | 30.19035 | 103.74411 | 4891 ft | 238 kts | 88° |
| 2026-04-22 14:36 | 30.19494 | 103.76223 | 4896 ft | 238 kts | 56° |
| 2026-04-22 14:36 | 30.20699 | 103.77462 | 4896 ft | 238 kts | 23° |
| 2026-04-22 14:36 | 30.22275 | 103.78051 | 4895 ft | 239 kts | 18° |
| 2026-04-22 14:36 | 30.23878 | 103.78831 | 4906 ft | 263 kts | 25° |
| 2026-04-22 14:37 | 30.25593 | 103.79731 | 4895 ft | 270 kts | 23° |
| 2026-04-22 14:37 | 30.27313 | 103.80541 | 4895 ft | 271 kts | 21° |
| 2026-04-22 14:37 | 30.29070 | 103.81346 | 4899 ft | 271 kts | 21° |
| 2026-04-22 14:37 | 30.30813 | 103.82149 | 4892 ft | 265 kts | 21° |
| 2026-04-22 14:38 | 30.32479 | 103.82921 | 4897 ft | 250 kts | 22° |
| 2026-04-22 14:38 | 30.34017 | 103.83633 | 4882 ft | 236 kts | 21° |
| 2026-04-22 14:38 | 30.35498 | 103.84319 | 4880 ft | 222 kts | 22° |
| 2026-04-22 14:38 | 30.36909 | 103.84973 | 4898 ft | 216 kts | 21° |
| 2026-04-22 14:39 | 30.38298 | 103.85616 | 4903 ft | 215 kts | 22° |
| 2026-04-22 14:39 | 30.39686 | 103.86260 | 4907 ft | 215 kts | 21° |
| 2026-04-22 14:39 | 30.41074 | 103.86903 | 4770 ft | 214 kts | 21° |
| 2026-04-22 14:40 | 30.43324 | 103.87947 | 4344 ft | 203 kts | 21° |
| 2026-04-22 14:40 | 30.45053 | 103.88750 | 4003 ft | 195 kts | 21° |
| 2026-04-22 14:40 | 30.46252 | 103.89307 | 3760 ft | 183 kts | 21° |
| 2026-04-22 14:40 | 30.47360 | 103.89821 | 3538 ft | 171 kts | 21° |
| 2026-04-22 14:41 | 30.48415 | 103.90312 | 3333 ft | 155 kts | 20° |
| 2026-04-22 14:41 | 30.49391 | 103.90765 | 3117 ft | 147 kts | 20° |
| 2026-04-22 14:41 | 30.50331 | 103.91202 | 2925 ft | 144 kts | 20° |
| 2026-04-22 14:41 | 30.51262 | 103.91634 | 2740 ft | 143 kts | 19° |
| 2026-04-22 14:42 | 30.52183 | 103.92062 | 2545 ft | 142 kts | 20° |
| 2026-04-22 14:42 | 30.53094 | 103.92478 | 2350 ft | 139 kts | 20° |
| 2026-04-22 14:42 | 30.53984 | 103.92910 | 2167 ft | 139 kts | 22° |
| 2026-04-22 14:42 | 30.54875 | 103.93325 | 1986 ft | 138 kts | 21° |
| 2026-04-22 14:43 | 30.55763 | 103.93739 | 1821 ft | 137 kts | 19° |
| 2026-04-22 14:43 | 30.56644 | 103.94141 | 1666 ft | 132 kts | 20° |
| 2026-04-22 14:43 | 30.57368 | 103.94476 | 1645 ft | 88 kts | 22° |
| 2026-04-22 14:43 | 30.57778 | 103.94666 | 1648 ft | 39 kts | 21° |
| 2026-04-22 14:44 | 30.57996 | 103.94769 | 1648 ft | 23 kts | 22° |
| 2026-04-22 14:44 | 30.58131 | 103.94882 | 1647 ft | 25 kts | 49° |
| 2026-04-22 14:44 | 30.58215 | 103.94997 | 1647 ft | 8 kts | 53° |
| 2026-04-22 14:44 | 30.58237 | 103.95059 | 1647 ft | 9 kts | 104° |
| 2026-04-22 14:45 | 30.58195 | 103.95129 | 1647 ft | 12 kts | 125° |
| 2026-04-22 14:45 | 30.58160 | 103.95223 | 1647 ft | 13 kts | 112° |
| 2026-04-22 14:45 | 30.58093 | 103.95223 | 1647 ft | 12 kts | 212° |
| 2026-04-22 14:45 | 30.58011 | 103.95175 | 1647 ft | 15 kts | 201° |
| 2026-04-22 14:46 | 30.57907 | 103.95127 | 1647 ft | 17 kts | 202° |
| 2026-04-22 14:46 | 30.57810 | 103.95081 | 1647 ft | 15 kts | 202° |
| 2026-04-22 14:46 | 30.57719 | 103.95041 | 1647 ft | 12 kts | 192° |
| 2026-04-22 14:46 | 30.57638 | 103.95001 | 1647 ft | 14 kts | 205° |
| 2026-04-22 14:47 | 30.57553 | 103.94967 | 1647 ft | 14 kts | 220° |
| 2026-04-22 14:47 | 30.57458 | 103.94917 | 1647 ft | 16 kts | 202° |
| 2026-04-22 14:47 | 30.57343 | 103.94864 | 1647 ft | 19 kts | 202° |
| 2026-04-22 14:47 | 30.57254 | 103.94897 | 1647 ft | 13 kts | 116° |
| 2026-04-22 14:48 | 30.57216 | 103.95002 | 1647 ft | 16 kts | 112° |
| 2026-04-22 14:48 | 30.57186 | 103.95079 | 1647 ft | 12 kts | 118° |
| 2026-04-22 14:48 | 30.57154 | 103.95134 | 1647 ft | 2 kts | 123° |
| 2026-04-22 14:48 | 30.57147 | 103.95146 | 1647 ft | 0 kts | 122° |